Time;durP1;ratioP1;P1;durP2;ratioP2;P2;SDS_P1;SDS_P2;PMS_P1;PMS_P2;Temp;Humidity;BMP_temperature;BMP_pressure;BME280_temperature;BME280_humidity;BME280_pressure;Samples;Min_cycle;Max_cycle;Signal;HPM_P1;HPM_P2
2021/11/24 00:01:32;;;;;;;81.50;36.58;;;;;;;4.62;98.04;101014.53;1776907;80;28175;-69
2021/11/24 00:03:59;;;;;;;80.55;35.70;;;;;;;4.62;98.03;101008.38;1776764;80;25565;-71
2021/11/24 00:06:25;;;;;;;77.62;35.73;;;;;;;4.63;97.99;101007.30;1755090;80;25573;-70
2021/11/24 00:08:52;;;;;;;79.75;36.77;;;;;;;4.63;97.95;101013.48;1776774;80;25988;-70
2021/11/24 00:11:19;;;;;;;82.80;36.70;;;;;;;4.64;97.90;101015.63;1776828;80;25631;-70
2021/11/24 00:13:46;;;;;;;72.03;34.43;;;;;;;4.65;97.90;101014.58;1776831;80;28023;-70
2021/11/24 00:16:13;;;;;;;78.90;35.08;;;;;;;4.65;97.91;101014.58;1776861;80;25355;-70
2021/11/24 00:51:30;;;;;;;82.17;35.88;;;;;;;4.69;98.09;100991.56;1776880;80;25367;-69
2021/11/24 00:53:57;;;;;;;87.53;37.15;;;;;;;4.68;98.07;100994.78;1777004;80;25398;-70
2021/11/24 00:56:23;;;;;;;83.90;34.88;;;;;;;4.68;98.14;100990.77;1776962;80;25984;-70
2021/11/24 00:58:50;;;;;;;78.80;35.23;;;;;;;4.70;98.17;100991.86;1776995;80;25596;-70
2021/11/24 01:01:16;;;;;;;82.27;36.98;;;;;;;4.71;98.18;100987.30;1776955;80;27311;-70
2021/11/24 01:03:43;;;;;;;85.60;36.50;;;;;;;4.73;98.15;100991.86;1776947;80;25795;-70
2021/11/24 01:06:09;;;;;;;77.03;36.33;;;;;;;4.73;98.13;100987.84;1777021;80;25451;-70
2021/11/24 01:08:37;;;;;;;75.10;33.53;;;;;;;4.74;98.24;100986.25;1776985;80;26224;-70
2021/11/24 01:11:04;;;;;;;76.62;33.42;;;;;;;4.74;98.16;100984.91;1777798;80;25136;-69
2021/11/24 01:13:32;;;;;;;76.85;33.60;;;;;;;4.74;98.09;100995.63;1778087;80;27374;-69
2021/11/24 01:15:58;;;;;;;71.62;32.40;;;;;;;4.74;97.95;100998.31;1777991;80;25426;-69
2021/11/24 01:18:25;;;;;;;69.87;32.83;;;;;;;4.75;97.98;100991.07;1776884;80;25397;-69
2021/11/24 01:20:52;;;;;;;72.15;32.80;;;;;;;4.75;97.92;100988.39;1775576;80;25925;-69
2021/11/24 01:23:19;;;;;;;78.92;34.90;;;;;;;4.77;97.95;100984.95;1775608;80;25553;-69
2021/11/24 01:25:45;;;;;;;73.60;34.33;;;;;;;4.79;97.89;100989.52;1774991;80;27318;-70
2021/11/24 01:28:12;;;;;;;74.53;34.83;;;;;;;4.79;97.83;100989.52;1774354;80;27152;-70
2021/11/24 01:30:40;;;;;;;80.15;34.60;;;;;;;4.78;97.80;100981.99;1774534;80;25527;-70
2021/11/24 01:33:08;;;;;;;78.30;34.58;;;;;;;4.77;97.78;100981.73;1774434;80;25934;-70
2021/11/24 01:35:35;;;;;;;75.83;34.58;;;;;;;4.78;97.77;100979.31;1774498;80;25442;-70
2021/11/24 01:38:02;;;;;;;69.95;31.15;;;;;;;4.79;97.75;100976.13;1774345;80;29541;-71
2021/11/24 01:40:29;;;;;;;79.53;32.15;;;;;;;4.77;97.70;100965.66;1774310;80;25762;-71
2021/11/24 01:42:55;;;;;;;71.37;32.90;;;;;;;4.78;97.73;100973.16;1774474;80;25491;-71
2021/11/24 01:45:24;;;;;;;71.65;33.00;;;;;;;4.77;97.69;100973.69;1774428;80;25921;-71
2021/11/24 01:47:52;;;;;;;68.90;31.27;;;;;;;4.76;97.62;100965.36;1774476;80;25481;-71
2021/11/24 01:50:20;;;;;;;67.30;31.57;;;;;;;4.74;97.69;100964.81;1774442;80;27397;-71
2021/11/24 01:52:47;;;;;;;70.15;32.58;;;;;;;4.75;97.66;100966.95;1774296;80;25959;-70
2021/11/24 01:55:16;;;;;;;71.85;33.55;;;;;;;4.74;97.67;100968.03;1774462;80;25577;-70
2021/11/24 01:57:47;;;;;;;74.95;33.33;;;;;;;4.74;97.70;100965.35;1774355;80;25906;-70
2021/11/24 02:00:19;;;;;;;71.62;33.45;;;;;;;4.74;97.76;100964.02;1774463;80;25387;-70
2021/11/24 02:02:46;;;;;;;73.55;33.83;;;;;;;4.75;97.71;100968.30;1774501;80;27308;-69
2021/11/24 02:05:13;;;;;;;71.82;32.88;;;;;;;4.75;97.66;100965.10;1774316;80;25376;-71
2021/11/24 02:07:39;;;;;;;67.50;33.00;;;;;;;4.75;97.79;100964.27;1774439;80;25452;-70
2021/11/24 02:10:07;;;;;;;67.53;31.62;;;;;;;4.73;97.61;100960.50;1774403;80;26687;-70
2021/11/24 02:12:34;;;;;;;68.60;31.40;;;;;;;4.73;97.58;100957.02;1774415;80;25418;-70
2021/11/24 02:15:01;;;;;;;64.12;30.43;;;;;;;4.71;97.56;100949.77;1774429;80;27313;-70
2021/11/24 02:17:27;;;;;;;65.83;30.65;;;;;;;4.70;97.62;100946.80;1774277;80;25643;-70
2021/11/24 02:19:54;;;;;;;66.62;30.08;;;;;;;4.70;97.66;100951.66;1776618;80;25567;-70
2021/11/24 02:22:21;;;;;;;63.48;29.20;;;;;;;4.69;97.55;100951.36;1776845;80;25952;-70
2021/11/24 02:24:47;;;;;;;67.35;30.65;;;;;;;4.67;97.49;100942.23;1776984;80;25477;-70
2021/11/24 02:27:15;;;;;;;63.58;30.48;;;;;;;4.68;97.54;100943.86;1776965;80;27486;-70
2021/11/24 02:29:46;;;;;;;54.20;26.27;;;;;;;4.66;97.46;100939.27;1776775;80;25643;-70
2021/11/24 02:32:16;;;;;;;66.62;29.72;;;;;;;4.66;97.42;100937.12;1776912;80;25552;-70
2021/11/24 02:34:43;;;;;;;;;;;;;;;4.66;97.28;100939.80;1779455;80;25923;-70
2021/11/24 02:37:09;;;;;;;60.43;27.58;;;;;;;4.64;97.28;100940.05;1776872;80;25529;-70
2021/11/24 02:39:36;;;;;;;58.23;27.48;;;;;;;4.62;97.24;100938.70;1776849;80;28012;-70
2021/11/24 02:42:03;;;;;;;62.38;28.85;;;;;;;4.60;97.32;100935.48;1776752;80;25552;-70
2021/11/24 02:44:48;;;;;;;62.10;28.00;;;;;;;4.59;97.20;100929.83;1776925;80;25414;-70
2021/11/24 02:47:21;;;;;;;58.13;26.20;;;;;;;4.58;97.21;100931.70;1776832;80;26425;-70
2021/11/24 02:49:51;;;;;;;58.58;26.52;;;;;;;4.56;97.33;100922.29;1776934;80;25371;-70
2021/11/24 02:52:20;;;;;;;58.23;25.35;;;;;;;4.55;97.16;100928.19;1776840;80;28006;-70
2021/11/24 02:54:57;;;;;;;57.58;25.70;;;;;;;4.54;97.15;100934.59;1776891;80;25605;-70
2021/11/24 02:57:40;;;;;;;56.60;25.25;;;;;;;4.54;97.14;100933.25;1776927;80;25374;-70
2021/11/24 03:00:24;;;;;;;53.70;23.75;;;;;;;4.54;97.20;100927.90;1776852;80;25908;-69
2021/11/24 03:02:51;;;;;;;49.48;24.92;;;;;;;4.54;97.01;100923.08;1776853;80;25585;-69
2021/11/24 03:05:22;;;;;;;48.02;24.30;;;;;;;4.54;96.94;100928.44;1776840;80;27496;-71
2021/11/24 03:07:50;;;;;;;53.78;25.05;;;;;;;4.52;96.80;100926.01;1776799;80;25375;-70
2021/11/24 03:10:18;;;;;;;51.40;24.67;;;;;;;4.50;96.90;100925.45;1776907;80;25624;-70
2021/11/24 03:12:44;;;;;;;56.20;25.85;;;;;;;4.48;96.86;100915.53;1776762;80;25963;-70
2021/11/24 03:15:11;;;;;;;57.90;25.30;;;;;;;4.47;96.92;100908.00;1776887;80;25544;-70
2021/11/24 03:17:39;;;;;;;56.25;25.77;;;;;;;4.47;96.95;100916.05;1776753;80;27395;-70
2021/11/24 03:20:09;;;;;;;51.48;26.48;;;;;;;4.46;97.05;100922.98;1774486;79;25603;-70
2021/11/24 03:22:36;;;;;;;53.75;26.42;;;;;;;4.46;96.99;100921.65;1774413;80;25556;-70
2021/11/24 03:25:06;;;;;;;57.73;27.30;;;;;;;4.46;97.00;100919.80;1774345;80;25908;-70
2021/11/24 03:27:35;;;;;;;;;;;;;;;4.46;97.08;100914.44;1776964;80;25433;-70
2021/11/24 03:30:07;;;;;;;52.75;26.85;;;;;;;4.46;96.96;100908.25;1774496;80;27890;-70
2021/11/24 03:32:34;;;;;;;52.10;26.70;;;;;;;4.45;96.97;100903.44;1773353;80;25599;-70
2021/11/24 03:35:00;;;;;;;52.45;24.75;;;;;;;4.45;96.87;100906.11;1774362;80;25437;-70
2021/11/24 03:37:27;;;;;;;55.63;25.95;;;;;;;4.46;96.85;100906.91;1774280;80;26052;-70
2021/11/24 03:39:53;;;;;;;52.85;25.97;;;;;;;4.47;96.90;100912.56;1774377;80;25377;-70
2021/11/24 03:42:20;;;;;;;50.63;25.20;;;;;;;4.47;96.80;100905.87;1774332;80;27890;-70
2021/11/24 03:44:47;;;;;;;53.02;24.40;;;;;;;4.48;96.88;100907.50;1774237;80;25579;-70
2021/11/24 03:47:14;;;;;;;55.10;24.45;;;;;;;4.50;96.78;100909.38;1774347;80;25588;-70
2021/11/24 03:49:41;;;;;;;57.75;26.23;;;;;;;4.50;96.80;100912.06;1774295;80;26484;-70
2021/11/24 03:52:08;;;;;;;53.68;24.77;;;;;;;4.51;96.83;100915.55;1774364;80;25532;-70
2021/11/24 03:54:34;;;;;;;55.20;24.67;;;;;;;4.48;96.86;100918.21;1774341;80;27328;-70
2021/11/24 03:57:02;;;;;;;55.05;25.65;;;;;;;4.48;96.83;100913.66;1774235;80;25535;-70
2021/11/24 03:59:30;;;;;;;53.00;23.35;;;;;;;4.47;96.87;100910.69;1774343;80;25555;-70
2021/11/24 04:01:56;;;;;;;49.00;22.60;;;;;;;4.46;97.08;100909.59;1774316;80;25977;-70
2021/11/24 04:04:23;;;;;;;48.02;23.80;;;;;;;4.46;96.84;100914.44;1774401;80;25383;-70
2021/11/24 04:06:50;;;;;;;51.08;23.70;;;;;;;4.45;96.97;100916.03;1774284;80;27996;-70
2021/11/24 04:09:16;;;;;;;54.88;24.92;;;;;;;4.45;96.92;100912.02;1774269;80;25520;-70
2021/11/24 04:11:43;;;;;;;47.88;23.00;;;;;;;4.44;97.02;100915.73;1774329;80;25615;-70
2021/11/24 04:14:10;;;;;;;48.13;23.30;;;;;;;4.44;97.06;100913.06;1774329;80;25942;-70
2021/11/24 04:16:37;;;;;;;50.17;24.20;;;;;;;4.44;97.10;100913.06;1774370;80;25543;-70
2021/11/24 04:19:04;;;;;;;52.62;24.95;;;;;;;4.43;97.33;100906.11;1774187;80;27337;-70
2021/11/24 04:21:32;;;;;;;59.03;24.95;;;;;;;4.41;97.36;100901.00;1774241;80;25378;-70
2021/11/24 04:24:00;;;;;;;49.65;23.20;;;;;;;4.43;97.42;100905.56;1774348;80;25411;-70
2021/11/24 04:26:27;;;;;;;52.00;24.77;;;;;;;4.43;97.56;100905.56;1774270;80;25781;-70
2021/11/24 04:28:53;;;;;;;55.90;24.95;;;;;;;4.43;97.38;100906.11;1774382;80;25427;-70
2021/11/24 04:31:20;;;;;;;57.85;24.40;;;;;;;4.43;97.53;100898.87;1774349;80;27396;-70
2021/11/24 04:33:47;;;;;;;48.33;24.43;;;;;;;4.42;97.66;100897.78;1774183;80;25589;-70
2021/11/24 04:36:13;;;;;;;52.98;26.25;;;;;;;4.43;97.96;100902.89;1774351;80;25444;-70
2021/11/24 04:38:40;;;;;;;55.23;24.35;;;;;;;4.42;97.73;100895.90;1774226;80;25985;-70
2021/11/24 04:41:06;;;;;;;50.85;23.70;;;;;;;4.43;97.77;100896.19;1774331;80;25632;-70
2021/11/24 04:43:38;;;;;;;55.98;25.57;;;;;;;4.43;97.80;100893.51;1774316;80;27307;-70
2021/11/24 04:46:04;;;;;;;54.58;25.52;;;;;;;4.44;97.75;100892.97;1773715;80;25588;-68
2021/11/24 04:48:31;;;;;;;51.42;23.50;;;;;;;4.44;97.80;100896.98;1774455;80;29535;-69
2021/11/24 04:50:57;;;;;;;60.50;25.45;;;;;;;4.46;97.85;100899.70;1774295;80;25983;-71
2021/11/24 04:53:23;;;;;;;52.40;24.77;;;;;;;4.47;97.81;100902.64;1774368;80;25615;-70
2021/11/24 04:55:50;;;;;;;55.20;25.10;;;;;;;4.46;97.86;100896.20;1774338;80;27876;-70
2021/11/24 04:58:17;;;;;;;55.80;24.47;;;;;;;4.45;98.03;100892.72;1774229;80;25696;-70
2021/11/24 05:00:44;;;;;;;53.20;24.15;;;;;;;4.46;97.96;100901.05;1774420;80;25428;-70
2021/11/24 05:03:10;;;;;;;57.75;23.07;;;;;;;4.46;97.79;100893.52;1774453;80;25916;-70
2021/11/24 05:05:37;;;;;;;51.55;24.05;;;;;;;4.46;97.90;100898.88;1774625;80;25544;-70
2021/11/24 05:08:04;;;;;;;55.35;24.52;;;;;;;4.45;98.04;100894.06;1774587;80;27296;-71
2021/11/24 05:10:31;;;;;;;53.73;24.15;;;;;;;4.46;97.88;100898.37;1774412;80;25605;-71
2021/11/24 05:12:59;;;;;;;52.65;22.48;;;;;;;4.47;97.91;100895.15;1774469;80;25591;-71
2021/11/24 05:15:32;;;;;;;53.10;24.02;;;;;;;4.47;97.92;100889.25;1774451;80;25966;-71
2021/11/24 05:18:06;;;;;;;56.50;24.10;;;;;;;4.48;97.89;100891.42;1774474;80;25437;-71
2021/11/24 05:20:30;;;;;;;;;;;;;;;4.50;98.02;100893.31;1777397;79;27931;-70
2021/11/24 05:23:00;;;;;;;54.13;23.05;;;;;;;4.50;97.89;100895.98;1777094;80;25548;-70
2021/11/24 05:25:28;;;;;;;52.00;23.57;;;;;;;4.46;97.97;100888.16;1777283;80;25581;-70
2021/11/24 05:27:56;;;;;;;56.30;23.73;;;;;;;4.46;97.96;100885.48;1777160;80;25967;-70
2021/11/24 05:30:23;;;;;;;52.75;23.10;;;;;;;4.45;97.90;100887.36;1777305;80;25563;-70
2021/11/24 05:32:50;;;;;;;52.78;23.73;;;;;;;4.46;97.90;100886.82;1777222;80;27291;-70
2021/11/24 05:35:21;;;;;;;56.55;23.77;;;;;;;4.47;97.86;100889.25;1777113;80;25619;-70
2021/11/24 05:37:45;;;;;;;47.88;22.15;;;;;;;4.49;97.88;100886.32;1776867;80;25512;-70
2021/11/24 05:40:12;;;;;;;54.65;22.87;;;;;;;4.47;97.83;100881.22;1777241;80;26430;-70
2021/11/24 05:42:45;;;;;;;49.50;23.55;;;;;;;4.47;97.75;100877.73;1777832;80;25140;-70
2021/11/24 05:45:15;;;;;;;52.75;23.47;;;;;;;4.47;97.83;100884.44;1777080;80;27319;-70
2021/11/24 05:47:54;;;;;;;53.42;22.80;;;;;;;4.47;97.80;100886.57;1775842;80;25520;-70
2021/11/24 05:50:19;;;;;;;49.00;22.50;;;;;;;4.46;97.73;100882.30;1776631;80;25390;-70
2021/11/24 05:52:46;;;;;;;48.20;22.55;;;;;;;4.47;97.86;100883.09;1777159;80;25911;-70
2021/11/24 05:55:12;;;;;;;52.53;23.98;;;;;;;4.46;97.75;100881.46;1777202;80;25443;-70
2021/11/24 05:57:39;;;;;;;49.80;22.75;;;;;;;4.47;97.79;100877.73;1777171;80;27868;-70
2021/11/24 06:00:24;;;;;;;51.35;22.95;;;;;;;4.47;97.73;100881.75;1777148;80;25411;-70
2021/11/24 06:02:51;;;;;;;47.88;22.30;;;;;;;4.47;97.81;100878.53;1777133;80;25425;-71
2021/11/24 06:05:18;;;;;;;49.53;22.67;;;;;;;4.46;97.72;100877.45;1777172;80;25970;-69
2021/11/24 06:07:45;;;;;;;54.85;24.43;;;;;;;4.47;97.68;100889.80;1776265;80;25425;-70
2021/11/24 06:10:13;;;;;;;51.55;22.65;;;;;;;4.45;97.66;100886.56;1777131;80;27406;-70
2021/11/24 06:12:40;;;;;;;49.60;21.57;;;;;;;4.48;97.67;100891.42;1777076;80;25572;-70
2021/11/24 06:15:08;;;;;;;50.45;22.20;;;;;;;4.48;97.68;100898.91;1777184;80;25374;-70
2021/11/24 06:17:34;;;;;;;51.55;21.87;;;;;;;4.49;97.62;100891.17;1777112;80;25953;-70
2021/11/24 06:20:01;;;;;;;50.43;22.50;;;;;;;4.49;97.60;100892.51;1775822;79;25372;-69
2021/11/24 06:22:28;;;;;;;49.10;22.95;;;;;;;4.49;97.59;100892.51;1776741;80;28022;-71
2021/11/24 06:24:55;;;;;;;47.98;20.90;;;;;;;4.52;97.59;100887.70;1776784;80;25430;-70
2021/11/24 06:27:21;;;;;;;44.48;21.95;;;;;;;4.52;97.57;100890.38;1776892;80;25396;-70
2021/11/24 06:29:48;;;;;;;47.48;22.35;;;;;;;4.54;97.60;100894.41;1776791;80;25885;-70
2021/11/24 06:32:15;;;;;;;48.90;21.65;;;;;;;4.54;97.50;100895.75;1776791;80;25384;-71
2021/11/24 06:34:41;;;;;;;47.48;21.25;;;;;;;4.54;97.45;100892.27;1776883;80;27333;-69
2021/11/24 06:37:08;;;;;;;49.13;22.40;;;;;;;4.56;97.49;100899.52;1776639;80;25428;-69
2021/11/24 06:39:34;;;;;;;46.28;21.80;;;;;;;4.54;97.41;100898.97;1776625;80;25793;-69
2021/11/24 06:42:01;;;;;;;46.73;22.60;;;;;;;4.55;97.32;100902.73;1775219;80;25979;-69
2021/11/24 06:44:28;;;;;;;51.35;23.35;;;;;;;4.55;97.36;100904.61;1775355;80;25791;-69
2021/11/24 06:46:54;;;;;;;50.00;22.27;;;;;;;4.56;97.34;100907.55;1775201;80;27944;-69
2021/11/24 06:49:21;;;;;;;47.95;22.42;;;;;;;4.56;97.37;100911.03;1775267;80;25637;-69
2021/11/24 06:51:48;;;;;;;52.50;23.27;;;;;;;4.57;97.36;100911.86;1775422;80;25683;-69
2021/11/24 06:54:19;;;;;;;45.67;22.52;;;;;;;4.57;97.29;100910.52;1775256;80;26134;-69
2021/11/24 06:56:49;;;;;;;47.05;21.33;;;;;;;4.58;97.26;100910.78;1775551;80;25702;-69
2021/11/24 06:59:16;;;;;;;41.65;19.52;;;;;;;4.58;97.26;100906.25;1776683;80;27310;-69
2021/11/24 07:01:43;;;;;;;41.98;22.10;;;;;;;4.60;97.24;100910.82;1776662;80;25422;-69
2021/11/24 07:04:11;;;;;;;39.15;20.57;;;;;;;4.61;97.21;100915.64;1776877;80;25603;-71
2021/11/24 07:06:37;;;;;;;39.53;19.32;;;;;;;4.63;97.21;100919.70;1776836;80;25971;-71
2021/11/24 07:09:04;;;;;;;39.73;21.65;;;;;;;4.64;97.19;100917.81;1776859;80;25375;-71
2021/11/24 07:11:32;;;;;;;37.08;20.48;;;;;;;4.65;97.04;100920.78;1776875;80;28180;-71
2021/11/24 07:14:00;;;;;;;40.75;21.87;;;;;;;4.67;97.10;100925.36;1776778;80;25589;-69
2021/11/24 07:16:26;;;;;;;40.23;21.60;;;;;;;4.70;97.04;100920.00;1776888;80;25367;-69
2021/11/24 07:18:53;;;;;;;40.35;20.37;;;;;;;4.71;97.08;100922.97;1776807;80;26083;-69
2021/11/24 07:21:20;;;;;;;39.85;20.72;;;;;;;4.72;96.91;100922.72;1774748;80;25383;-69
2021/11/24 10:36:54;;;;;;;34.92;19.32;;;;;;;5.60;93.66;100868.63;1714414;82;25945;-67
2021/11/24 10:39:23;;;;;;;34.05;18.55;;;;;;;5.59;93.47;100880.41;1715517;82;25393;-68
2021/11/24 10:41:51;;;;;;;33.63;18.25;;;;;;;5.60;93.68;100867.28;1724400;82;27337;-68
2021/11/24 10:44:28;;;;;;;33.38;19.70;;;;;;;5.61;93.53;100864.84;1745177;82;25379;-67
2021/11/24 10:46:57;;;;;;;33.40;18.62;;;;;;;5.63;93.41;100876.67;1745255;82;25557;-67
2021/11/24 10:49:39;;;;;;;32.70;17.65;;;;;;;5.63;92.90;100859.77;1745267;81;26132;-68
2021/11/24 10:52:16;;;;;;;36.10;18.35;;;;;;;5.63;92.55;100867.82;1745341;81;25451;-67
2021/11/24 10:54:48;;;;;;;36.13;18.02;;;;;;;5.64;92.82;100858.17;1745242;82;27307;-67
2021/11/24 10:57:16;;;;;;;30.37;17.50;;;;;;;5.67;93.21;100854.14;1738825;81;25902;-66
2021/11/24 10:59:45;;;;;;;33.65;17.73;;;;;;;5.70;93.41;100850.94;1745209;82;25515;-67
2021/11/24 11:02:28;;;;;;;32.88;18.55;;;;;;;5.73;93.11;100852.56;1745329;82;25972;-67
2021/11/24 11:05:02;;;;;;;30.45;16.62;;;;;;;5.75;93.03;100845.59;1745384;82;25542;-67
2021/11/24 11:07:33;;;;;;;32.85;17.00;;;;;;;5.74;92.56;100845.33;1745159;82;27320;-67
2021/11/24 11:10:07;;;;;;;32.08;18.40;;;;;;;5.74;92.48;100847.47;1745288;82;25590;-67
2021/11/24 11:12:36;;;;;;;32.98;17.15;;;;;;;5.75;92.53;100838.88;1745299;82;25583;-67
2021/11/24 11:15:26;;;;;;;30.55;16.52;;;;;;;5.76;92.54;100835.93;1745364;82;25931;-67
2021/11/24 11:18:13;;;;;;;29.42;17.42;;;;;;;5.76;92.39;100838.62;1745347;82;25366;-67
2021/11/24 11:21:14;;;;;;;31.23;17.02;;;;;;;5.76;92.12;100836.48;1745339;82;28243;-69
2021/11/24 11:23:48;;;;;;;32.58;16.87;;;;;;;5.74;91.97;100834.05;1709293;83;25573;-66
2021/11/24 11:26:20;;;;;;;29.95;17.07;;;;;;;5.73;91.94;100833.77;1711985;83;25541;-67
2021/11/24 11:28:51;;;;;;;28.57;16.27;;;;;;;5.72;91.78;100836.20;1711965;83;25983;-68
2021/11/24 11:31:20;;;;;;;30.77;16.73;;;;;;;5.73;92.08;100825.71;1711995;83;25634;-68
2021/11/24 11:33:51;;;;;;;24.75;15.78;;;;;;;5.75;92.26;100830.83;1712112;83;28041;-68
2021/11/24 11:36:19;;;;;;;27.60;16.00;;;;;;;5.77;92.14;100821.96;1711869;83;25675;-68
2021/11/24 11:38:56;;;;;;;25.68;15.68;;;;;;;5.78;92.09;100820.36;1711950;83;25379;-68
2021/11/24 11:41:33;;;;;;;30.88;16.48;;;;;;;5.79;92.15;100822.53;1711959;83;25934;-67
2021/11/24 11:44:01;;;;;;;24.77;14.43;;;;;;;5.83;92.04;100825.49;1708673;83;25455;-67
2021/11/24 11:46:33;;;;;;;25.82;15.15;;;;;;;5.84;91.94;100823.06;1711915;83;27384;-68
2021/11/24 11:49:09;;;;;;;30.00;16.82;;;;;;;5.84;91.99;100821.20;1711860;83;25443;-68
2021/11/24 11:51:39;;;;;;;27.70;15.63;;;;;;;5.86;92.46;100819.05;1711999;83;25453;-67
2021/11/24 11:54:09;;;;;;;26.33;16.12;;;;;;;5.89;92.48;100817.19;1712016;83;27550;-67
2021/11/24 11:56:48;;;;;;;32.80;16.70;;;;;;;5.94;92.75;100818.55;1712106;83;25383;-68
2021/11/24 11:59:23;;;;;;;28.98;16.62;;;;;;;6.02;92.81;100817.23;1710169;83;27350;-67
2021/11/24 12:02:00;;;;;;;27.27;15.68;;;;;;;6.05;92.67;100813.23;1710700;83;28586;-68
2021/11/24 12:04:50;;;;;;;30.37;16.50;;;;;;;6.06;92.58;100810.80;1711918;83;25392;-68
2021/11/24 12:07:19;;;;;;;24.10;14.95;;;;;;;6.05;92.45;100814.02;1707859;83;25967;-67
2021/11/24 12:09:57;;;;;;;29.15;16.60;;;;;;;6.06;92.09;100807.59;1728830;82;25635;-67
2021/11/24 12:12:36;;;;;;;28.67;16.77;;;;;;;6.06;91.77;100806.77;1716385;82;27665;-66
2021/11/24 12:15:17;;;;;;;27.48;16.62;;;;;;;6.10;91.82;100801.16;1706613;83;25728;-68
2021/11/24 12:17:57;;;;;;;27.22;17.07;;;;;;;6.07;91.41;100805.70;1686390;84;25809;-68
2021/11/24 12:20:37;;;;;;;30.60;17.23;;;;;;;6.11;91.87;100804.92;1696153;84;25982;-67
2021/11/24 12:23:01;;;;;;;25.65;16.57;;;;;;;6.11;91.42;100802.23;1697564;83;25391;-67
2021/11/24 12:25:34;;;;;;;30.05;17.73;;;;;;;6.11;91.63;100800.89;1688671;83;27347;-68
2021/11/24 12:28:09;;;;;;;27.80;16.55;;;;;;;6.10;91.58;100797.13;1670535;85;25801;-67
2021/11/24 12:30:48;;;;;;;27.62;16.57;;;;;;;6.07;91.43;100801.67;1669005;85;25727;-68
2021/11/24 12:33:28;;;;;;;28.45;17.02;;;;;;;6.02;91.69;100794.95;1666883;86;25992;-68
2021/11/24 12:36:11;;;;;;;28.32;16.95;;;;;;;6.02;91.69;100794.95;1668873;86;33045;-67
2021/11/24 12:38:51;;;;;;;27.55;17.00;;;;;;;6.00;91.63;100793.88;1667990;85;27364;-68
2021/11/24 12:41:26;;;;;;;27.55;17.12;;;;;;;6.01;91.71;100796.02;1668556;86;27259;-67
2021/11/24 12:43:58;;;;;;;31.48;16.67;;;;;;;5.96;91.39;100792.27;1644517;86;25671;-67
2021/11/24 12:46:28;;;;;;;27.00;17.00;;;;;;;5.92;91.57;100793.02;1668716;86;26752;-67
2021/11/24 12:49:17;;;;;;;26.77;15.90;;;;;;;5.90;91.74;100787.91;1668820;86;25448;-67
2021/11/24 12:51:50;;;;;;;;;;;;;;;5.91;91.74;100787.39;1670853;86;27338;-66
2021/11/24 12:54:24;;;;;;;25.68;14.73;;;;;;;5.90;91.83;100783.88;1667414;85;25784;-67
2021/11/24 12:56:57;;;;;;;30.08;18.40;;;;;;;5.90;91.74;100783.09;1667943;86;25705;-67
2021/11/24 12:59:28;;;;;;;30.90;16.97;;;;;;;5.91;91.84;100791.42;1672979;84;26290;-66
2021/11/24 13:01:59;;;;;;;27.48;17.65;;;;;;;5.89;91.80;100786.83;1681364;84;25746;-66
2021/11/24 13:04:46;;;;;;;25.25;16.23;;;;;;;5.89;91.75;100782.29;1695035;84;27402;-66
2021/11/24 13:07:24;;;;;;;28.75;17.95;;;;;;;5.88;91.81;100780.66;1694548;84;25969;-67
2021/11/24 13:09:53;;;;;;;28.47;18.25;;;;;;;5.89;91.90;100788.17;1674975;84;25450;-68
2021/11/24 13:12:24;;;;;;;32.03;19.20;;;;;;;5.91;91.98;100788.19;1696124;84;25997;-67
2021/11/24 13:14:56;;;;;;;29.18;16.85;;;;;;;5.92;92.06;100783.62;1693271;84;25417;-67
2021/11/24 13:17:29;;;;;;;28.52;18.00;;;;;;;5.97;92.12;100780.97;1676029;85;27856;-67
2021/11/24 13:20:02;;;;;;;29.40;18.02;;;;;;;5.98;92.19;100770.52;1703887;84;25619;-67
2021/11/24 13:22:40;;;;;;;30.70;18.30;;;;;;;6.00;92.11;100778.31;1684129;84;25706;-68
2021/11/24 13:25:17;;;;;;;31.55;18.20;;;;;;;6.00;92.01;100775.08;1695348;84;25917;-67
2021/11/24 13:27:53;;;;;;;31.15;18.48;;;;;;;6.00;91.96;100778.31;1699694;84;25389;-67
2021/11/24 13:30:28;;;;;;;30.92;19.02;;;;;;;5.99;91.65;100772.11;1694279;84;28277;-67
2021/11/24 13:33:13;;;;;;;30.90;18.90;;;;;;;5.97;91.54;100765.66;1695935;83;25706;-67
2021/11/24 13:35:53;;;;;;;28.60;17.32;;;;;;;5.96;91.54;100767.30;1699349;84;25673;-68
2021/11/24 13:38:33;;;;;;;27.87;18.23;;;;;;;5.93;91.60;100764.56;1708769;83;25936;-69
2021/11/24 13:41:15;;;;;;;29.85;17.98;;;;;;;5.93;91.72;100761.88;1734598;82;25619;-68
2021/11/24 13:43:46;;;;;;;30.32;18.15;;;;;;;5.92;91.68;100764.28;1748017;81;27311;-67
2021/11/24 13:46:27;;;;;;;30.00;18.95;;;;;;;5.88;91.72;100763.21;1708552;81;25832;-67
2021/11/24 13:49:23;;;;;;;35.38;19.48;;;;;;;5.88;91.73;100769.13;1738644;81;25547;-67
2021/11/24 13:52:08;;;;;;;32.63;19.17;;;;;;;5.84;91.69;100766.17;1745545;82;26128;-67
2021/11/24 13:54:50;;;;;;;34.55;18.35;;;;;;;5.82;91.83;100759.44;1744677;81;25550;-68
2021/11/24 13:57:18;;;;;;;33.48;19.95;;;;;;;5.79;91.91;100760.79;1744240;82;27916;-66
2021/11/24 13:59:47;;;;;;;29.60;18.48;;;;;;;5.76;92.09;100755.94;1725741;82;25469;-67
2021/11/24 14:02:24;;;;;;;30.05;19.05;;;;;;;5.73;92.12;100756.47;1741423;81;25554;-67
2021/11/24 14:04:55;;;;;;;33.98;19.17;;;;;;;5.73;92.30;100760.49;1731228;82;25899;-66
2021/11/24 14:07:36;;;;;;;33.60;19.40;;;;;;;5.71;92.33;100761.30;1742207;82;25922;-67
2021/11/24 14:10:14;;;;;;;31.85;18.10;;;;;;;5.70;92.35;100759.67;1736993;81;27375;-64
2021/11/24 14:12:41;;;;;;;31.25;18.42;;;;;;;5.67;92.35;100757.00;1717804;83;25810;-65
2021/11/24 14:15:29;;;;;;;34.80;20.35;;;;;;;5.67;92.41;100754.83;1734807;82;25671;-65
2021/11/24 14:18:03;;;;;;;37.48;21.87;;;;;;;5.66;92.54;100755.92;1740927;82;26548;-65
2021/11/24 14:20:39;;;;;;;36.48;20.70;;;;;;;5.63;92.59;100747.05;1744835;82;25618;-67
2021/11/24 14:23:12;;;;;;;33.65;20.20;;;;;;;5.60;92.66;100751.05;1741076;81;27358;-65
2021/11/24 14:25:46;;;;;;;34.95;21.40;;;;;;;5.57;92.77;100751.60;1718637;83;25708;-65
2021/11/24 14:28:55;;;;;;;34.98;21.93;;;;;;;5.56;92.97;100754.80;1735090;82;25700;-65
2021/11/24 14:31:39;;;;;;;37.17;22.32;;;;;;;5.54;93.17;100750.78;1708623;83;26029;-65
2021/11/24 14:34:06;;;;;;;34.85;20.37;;;;;;;5.50;93.38;100752.36;1730335;82;25803;-65
2021/11/24 14:36:33;;;;;;;36.88;21.90;;;;;;;5.47;93.23;100751.57;1708572;82;27691;-65
2021/11/24 14:39:00;;;;;;;35.52;21.12;;;;;;;5.43;93.35;100751.27;1690849;84;27344;-65
2021/11/24 14:41:27;;;;;;;39.20;21.10;;;;;;;5.41;93.52;100744.02;1735948;82;25417;-65
2021/11/24 14:43:53;;;;;;;38.05;22.17;;;;;;;5.39;93.61;100742.94;1735073;81;25931;-65
2021/11/24 14:46:20;;;;;;;34.58;21.35;;;;;;;5.36;93.70;100739.47;1734518;82;25465;-65
2021/11/24 14:48:46;;;;;;;34.70;20.62;;;;;;;5.34;93.84;100746.15;1735071;82;27361;-67
2021/11/24 14:51:13;;;;;;;38.33;20.55;;;;;;;5.34;93.87;100751.52;1732269;82;25825;-67
2021/11/24 14:53:39;;;;;;;35.68;21.48;;;;;;;5.34;94.04;100746.15;1728083;82;25678;-67
2021/11/24 14:56:07;;;;;;;36.08;21.52;;;;;;;5.33;93.96;100753.40;1729209;82;25953;-67
2021/11/24 14:58:34;;;;;;;37.15;21.23;;;;;;;5.32;93.98;100749.09;1733102;82;25661;-66
2021/11/24 15:01:01;;;;;;;33.67;20.68;;;;;;;5.32;93.94;100749.09;1735115;82;27317;-66
2021/11/24 15:03:31;;;;;;;36.28;20.95;;;;;;;5.31;94.01;100748.01;1738623;82;25745;-66
2021/11/24 15:05:59;;;;;;;38.05;22.48;;;;;;;5.30;93.98;100751.78;1732910;82;25576;-67
2021/11/24 15:08:26;;;;;;;39.05;21.00;;;;;;;5.29;94.04;100753.63;1738457;82;25975;-66
2021/11/24 15:10:55;;;;;;;34.03;20.37;;;;;;;5.29;94.03;100754.97;1738581;82;25602;-67
2021/11/24 15:13:22;;;;;;;33.35;20.10;;;;;;;5.28;94.08;100754.72;1738896;82;28043;-66
2021/11/24 15:15:50;;;;;;;33.38;19.95;;;;;;;5.27;94.03;100753.09;1738772;82;25692;-67
2021/11/24 15:18:17;;;;;;;36.95;20.97;;;;;;;5.27;94.01;100749.06;1738833;82;25731;-66
2021/11/24 15:20:44;;;;;;;33.85;19.98;;;;;;;5.27;94.10;100756.32;1738551;81;26045;-66